sensor_id;sensor_type;location;lat;lon;timestamp;P1;durP1;ratioP1;P2;durP2;ratioP2
36799;SDS011;22752;51.960;5.886;2022-09-25T00:01:31;5.20;;;1.67;;
36799;SDS011;22752;51.960;5.886;2022-09-25T00:03:57;13.38;;;2.30;;
36799;SDS011;22752;51.960;5.886;2022-09-25T00:06:24;6.03;;;1.50;;
36799;SDS011;22752;51.960;5.886;2022-09-25T00:08:50;3.65;;;1.50;;
36799;SDS011;22752;51.960;5.886;2022-09-25T00:11:18;5.13;;;1.48;;
36799;SDS011;22752;51.960;5.886;2022-09-25T00:13:49;6.10;;;1.65;;
36799;SDS011;22752;51.960;5.886;2022-09-25T00:16:16;4.93;;;1.52;;
36799;SDS011;22752;51.960;5.886;2022-09-25T00:18:44;12.43;;;1.77;;
36799;SDS011;22752;51.960;5.886;2022-09-25T00:21:29;6.07;;;1.70;;
36799;SDS011;22752;51.960;5.886;2022-09-25T00:23:56;4.97;;;1.70;;
36799;SDS011;22752;51.960;5.886;2022-09-25T00:26:24;5.40;;;1.38;;
36799;SDS011;22752;51.960;5.886;2022-09-25T00:28:52;7.95;;;2.00;;
36799;SDS011;22752;51.960;5.886;2022-09-25T00:31:19;4.15;;;1.60;;
36799;SDS011;22752;51.960;5.886;2022-09-25T00:33:50;5.25;;;1.33;;
36799;SDS011;22752;51.960;5.886;2022-09-25T00:36:16;5.28;;;1.30;;
36799;SDS011;22752;51.960;5.886;2022-09-25T00:38:42;6.90;;;1.47;;
36799;SDS011;22752;51.960;5.886;2022-09-25T00:41:10;8.40;;;1.50;;
36799;SDS011;22752;51.960;5.886;2022-09-25T00:46:10;7.10;;;1.55;;
36799;SDS011;22752;51.960;5.886;2022-09-25T00:48:42;4.03;;;1.30;;
36799;SDS011;22752;51.960;5.886;2022-09-25T00:51:17;3.63;;;1.40;;
36799;SDS011;22752;51.960;5.886;2022-09-25T00:53:53;8.03;;;1.80;;
36799;SDS011;22752;51.960;5.886;2022-09-25T00:56:23;5.43;;;1.90;;
36799;SDS011;22752;51.960;5.886;2022-09-25T00:58:49;4.80;;;1.97;;
36799;SDS011;22752;51.960;5.886;2022-09-25T01:01:15;9.87;;;1.90;;
36799;SDS011;22752;51.960;5.886;2022-09-25T01:03:41;7.60;;;1.90;;
36799;SDS011;22752;51.960;5.886;2022-09-25T01:06:10;13.73;;;2.60;;
36799;SDS011;22752;51.960;5.886;2022-09-25T01:08:38;3.90;;;1.97;;
36799;SDS011;22752;51.960;5.886;2022-09-25T01:11:05;7.70;;;2.03;;
36799;SDS011;22752;51.960;5.886;2022-09-25T01:13:30;4.57;;;1.60;;
36799;SDS011;22752;51.960;5.886;2022-09-25T01:29:48;5.83;;;1.73;;
36799;SDS011;22752;51.960;5.886;2022-09-25T01:37:56;3.23;;;1.40;;
36799;SDS011;22752;51.960;5.886;2022-09-25T01:43:15;3.13;;;1.40;;
36799;SDS011;22752;51.960;5.886;2022-09-25T01:45:51;3.20;;;1.27;;
36799;SDS011;22752;51.960;5.886;2022-09-25T01:48:25;2.77;;;1.20;;
36799;SDS011;22752;51.960;5.886;2022-09-25T01:50:56;6.17;;;1.63;;
36799;SDS011;22752;51.960;5.886;2022-09-25T01:53:24;5.33;;;1.50;;
36799;SDS011;22752;51.960;5.886;2022-09-25T01:55:55;2.07;;;1.30;;
36799;SDS011;22752;51.960;5.886;2022-09-25T01:58:42;9.35;;;1.85;;
36799;SDS011;22752;51.960;5.886;2022-09-25T02:01:18;6.13;;;1.97;;
36799;SDS011;22752;51.960;5.886;2022-09-25T02:03:58;5.73;;;1.50;;
36799;SDS011;22752;51.960;5.886;2022-09-25T02:06:29;4.93;;;1.63;;
36799;SDS011;22752;51.960;5.886;2022-09-25T02:09:39;5.27;;;1.47;;
36799;SDS011;22752;51.960;5.886;2022-09-25T02:12:04;4.25;;;2.03;;
36799;SDS011;22752;51.960;5.886;2022-09-25T02:14:40;7.87;;;1.80;;
36799;SDS011;22752;51.960;5.886;2022-09-25T02:17:22;3.70;;;1.50;;
36799;SDS011;22752;51.960;5.886;2022-09-25T02:20:12;2.13;;;1.35;;
36799;SDS011;22752;51.960;5.886;2022-09-25T02:22:57;3.53;;;1.53;;
36799;SDS011;22752;51.960;5.886;2022-09-25T02:25:35;4.93;;;1.77;;
36799;SDS011;22752;51.960;5.886;2022-09-25T02:28:05;5.80;;;1.60;;
36799;SDS011;22752;51.960;5.886;2022-09-25T02:30:31;7.30;;;1.70;;
36799;SDS011;22752;51.960;5.886;2022-09-25T02:32:57;4.63;;;2.03;;
36799;SDS011;22752;51.960;5.886;2022-09-25T02:35:23;3.63;;;1.57;;
36799;SDS011;22752;51.960;5.886;2022-09-25T02:37:50;4.47;;;1.50;;
36799;SDS011;22752;51.960;5.886;2022-09-25T02:40:16;6.13;;;2.00;;
36799;SDS011;22752;51.960;5.886;2022-09-25T02:42:51;5.57;;;1.60;;
36799;SDS011;22752;51.960;5.886;2022-09-25T02:45:44;5.57;;;1.60;;
36799;SDS011;22752;51.960;5.886;2022-09-25T02:48:28;3.63;;;1.90;;
36799;SDS011;22752;51.960;5.886;2022-09-25T02:53:41;4.27;;;1.23;;
36799;SDS011;22752;51.960;5.886;2022-09-25T02:56:24;4.00;;;1.67;;
36799;SDS011;22752;51.960;5.886;2022-09-25T02:59:02;6.00;;;1.90;;
36799;SDS011;22752;51.960;5.886;2022-09-25T03:01:33;3.93;;;1.63;;
36799;SDS011;22752;51.960;5.886;2022-09-25T03:04:02;3.03;;;1.50;;
36799;SDS011;22752;51.960;5.886;2022-09-25T03:06:29;4.77;;;1.87;;
36799;SDS011;22752;51.960;5.886;2022-09-25T03:08:56;5.97;;;1.27;;
36799;SDS011;22752;51.960;5.886;2022-09-25T03:11:24;10.23;;;1.30;;
36799;SDS011;22752;51.960;5.886;2022-09-25T03:13:57;1.70;;;1.20;;
36799;SDS011;22752;51.960;5.886;2022-09-25T03:19:00;6.23;;;1.60;;
36799;SDS011;22752;51.960;5.886;2022-09-25T03:21:26;7.43;;;1.70;;
36799;SDS011;22752;51.960;5.886;2022-09-25T03:23:53;2.30;;;1.20;;
36799;SDS011;22752;51.960;5.886;2022-09-25T03:26:20;4.83;;;1.30;;
36799;SDS011;22752;51.960;5.886;2022-09-25T03:28:48;3.63;;;1.47;;
36799;SDS011;22752;51.960;5.886;2022-09-25T03:31:13;3.53;;;1.20;;
36799;SDS011;22752;51.960;5.886;2022-09-25T03:33:40;3.40;;;1.50;;
36799;SDS011;22752;51.960;5.886;2022-09-25T03:38:43;2.43;;;1.30;;
36799;SDS011;22752;51.960;5.886;2022-09-25T03:41:11;3.77;;;1.40;;
36799;SDS011;22752;51.960;5.886;2022-09-25T03:43:38;3.27;;;1.37;;
36799;SDS011;22752;51.960;5.886;2022-09-25T03:46:10;4.87;;;1.33;;
36799;SDS011;22752;51.960;5.886;2022-09-25T03:48:37;3.67;;;1.30;;
36799;SDS011;22752;51.960;5.886;2022-09-25T03:51:04;3.97;;;1.60;;
36799;SDS011;22752;51.960;5.886;2022-09-25T03:53:30;3.67;;;1.53;;
36799;SDS011;22752;51.960;5.886;2022-09-25T03:55:57;2.30;;;1.50;;
36799;SDS011;22752;51.960;5.886;2022-09-25T03:58:24;5.90;;;1.73;;
36799;SDS011;22752;51.960;5.886;2022-09-25T04:00:50;4.93;;;1.30;;
36799;SDS011;22752;51.960;5.886;2022-09-25T04:03:16;4.40;;;1.87;;
36799;SDS011;22752;51.960;5.886;2022-09-25T04:05:42;3.53;;;1.63;;
36799;SDS011;22752;51.960;5.886;2022-09-25T04:08:08;2.10;;;1.50;;
36799;SDS011;22752;51.960;5.886;2022-09-25T04:10:34;6.93;;;1.70;;
36799;SDS011;22752;51.960;5.886;2022-09-25T04:13:03;2.37;;;1.50;;
36799;SDS011;22752;51.960;5.886;2022-09-25T04:15:35;1.90;;;1.30;;
36799;SDS011;22752;51.960;5.886;2022-09-25T04:18:00;2.13;;;1.60;;
36799;SDS011;22752;51.960;5.886;2022-09-25T04:20:26;3.37;;;1.70;;
36799;SDS011;22752;51.960;5.886;2022-09-25T04:22:52;2.00;;;1.63;;
36799;SDS011;22752;51.960;5.886;2022-09-25T04:25:17;2.00;;;1.70;;
36799;SDS011;22752;51.960;5.886;2022-09-25T04:27:45;4.07;;;1.80;;
36799;SDS011;22752;51.960;5.886;2022-09-25T04:30:13;2.57;;;1.70;;
36799;SDS011;22752;51.960;5.886;2022-09-25T04:32:38;4.40;;;1.67;;
36799;SDS011;22752;51.960;5.886;2022-09-25T04:35:22;4.07;;;1.93;;
36799;SDS011;22752;51.960;5.886;2022-09-25T04:37:48;3.40;;;1.70;;
36799;SDS011;22752;51.960;5.886;2022-09-25T04:40:14;3.03;;;1.77;;
36799;SDS011;22752;51.960;5.886;2022-09-25T04:42:39;2.10;;;1.60;;
36799;SDS011;22752;51.960;5.886;2022-09-25T04:45:07;3.27;;;1.80;;
36799;SDS011;22752;51.960;5.886;2022-09-25T04:47:33;3.00;;;1.53;;
36799;SDS011;22752;51.960;5.886;2022-09-25T04:49:58;3.30;;;1.77;;
36799;SDS011;22752;51.960;5.886;2022-09-25T04:52:24;4.40;;;1.80;;
36799;SDS011;22752;51.960;5.886;2022-09-25T04:54:50;2.30;;;1.73;;
36799;SDS011;22752;51.960;5.886;2022-09-25T04:57:16;3.37;;;1.60;;
36799;SDS011;22752;51.960;5.886;2022-09-25T04:59:44;1.80;;;1.50;;
36799;SDS011;22752;51.960;5.886;2022-09-25T05:02:13;2.67;;;2.00;;
36799;SDS011;22752;51.960;5.886;2022-09-25T05:04:39;4.77;;;2.17;;
36799;SDS011;22752;51.960;5.886;2022-09-25T05:07:04;2.10;;;1.60;;
36799;SDS011;22752;51.960;5.886;2022-09-25T05:09:30;2.27;;;1.70;;
36799;SDS011;22752;51.960;5.886;2022-09-25T05:11:56;3.53;;;1.87;;
36799;SDS011;22752;51.960;5.886;2022-09-25T05:14:22;3.87;;;1.90;;
36799;SDS011;22752;51.960;5.886;2022-09-25T05:16:48;3.53;;;1.80;;
36799;SDS011;22752;51.960;5.886;2022-09-25T05:19:14;2.00;;;1.80;;
36799;SDS011;22752;51.960;5.886;2022-09-25T05:21:41;4.00;;;1.50;;
36799;SDS011;22752;51.960;5.886;2022-09-25T05:24:07;2.47;;;1.50;;
36799;SDS011;22752;51.960;5.886;2022-09-25T05:26:34;4.23;;;1.63;;
36799;SDS011;22752;51.960;5.886;2022-09-25T05:29:00;2.03;;;1.80;;
36799;SDS011;22752;51.960;5.886;2022-09-25T05:31:26;3.80;;;2.10;;
36799;SDS011;22752;51.960;5.886;2022-09-25T05:33:52;3.97;;;2.00;;
36799;SDS011;22752;51.960;5.886;2022-09-25T05:36:18;4.13;;;2.20;;
36799;SDS011;22752;51.960;5.886;2022-09-25T05:38:44;3.27;;;2.17;;
36799;SDS011;22752;51.960;5.886;2022-09-25T05:41:10;3.13;;;1.97;;
36799;SDS011;22752;51.960;5.886;2022-09-25T05:43:40;3.83;;;2.03;;
36799;SDS011;22752;51.960;5.886;2022-09-25T05:46:07;3.03;;;2.30;;
36799;SDS011;22752;51.960;5.886;2022-09-25T05:48:34;2.40;;;2.20;;
36799;SDS011;22752;51.960;5.886;2022-09-25T05:51:00;2.80;;;2.03;;
36799;SDS011;22752;51.960;5.886;2022-09-25T05:53:25;3.00;;;2.40;;
36799;SDS011;22752;51.960;5.886;2022-09-25T05:56:10;2.37;;;2.10;;
36799;SDS011;22752;51.960;5.886;2022-09-25T05:58:35;2.50;;;2.30;;
36799;SDS011;22752;51.960;5.886;2022-09-25T06:01:05;5.17;;;2.77;;
36799;SDS011;22752;51.960;5.886;2022-09-25T06:03:31;3.40;;;2.60;;
36799;SDS011;22752;51.960;5.886;2022-09-25T06:05:59;2.67;;;2.40;;
36799;SDS011;22752;51.960;5.886;2022-09-25T06:08:26;3.70;;;2.27;;
36799;SDS011;22752;51.960;5.886;2022-09-25T06:10:55;3.23;;;2.33;;
36799;SDS011;22752;51.960;5.886;2022-09-25T06:13:21;3.07;;;2.67;;
36799;SDS011;22752;51.960;5.886;2022-09-25T06:15:49;2.97;;;2.67;;
36799;SDS011;22752;51.960;5.886;2022-09-25T06:18:16;3.20;;;2.30;;
36799;SDS011;22752;51.960;5.886;2022-09-25T06:20:44;5.07;;;2.73;;
36799;SDS011;22752;51.960;5.886;2022-09-25T06:23:10;2.67;;;2.47;;
36799;SDS011;22752;51.960;5.886;2022-09-25T06:25:36;3.00;;;2.70;;
36799;SDS011;22752;51.960;5.886;2022-09-25T06:28:02;2.60;;;2.03;;
36799;SDS011;22752;51.960;5.886;2022-09-25T06:30:29;2.23;;;2.07;;
36799;SDS011;22752;51.960;5.886;2022-09-25T06:32:58;4.23;;;2.27;;
36799;SDS011;22752;51.960;5.886;2022-09-25T06:35:25;3.67;;;2.03;;
36799;SDS011;22752;51.960;5.886;2022-09-25T06:37:55;4.13;;;2.00;;
36799;SDS011;22752;51.960;5.886;2022-09-25T06:40:21;11.35;;;2.50;;
36799;SDS011;22752;51.960;5.886;2022-09-25T06:42:46;2.10;;;1.90;;
36799;SDS011;22752;51.960;5.886;2022-09-25T06:45:14;2.25;;;1.77;;
36799;SDS011;22752;51.960;5.886;2022-09-25T06:47:40;3.00;;;1.70;;
36799;SDS011;22752;51.960;5.886;2022-09-25T06:50:06;3.35;;;1.75;;
36799;SDS011;22752;51.960;5.886;2022-09-25T06:52:32;4.95;;;1.98;;
36799;SDS011;22752;51.960;5.886;2022-09-25T06:54:58;4.40;;;1.70;;
36799;SDS011;22752;51.960;5.886;2022-09-25T06:57:23;3.75;;;1.70;;
36799;SDS011;22752;51.960;5.886;2022-09-25T06:59:49;3.15;;;1.50;;
36799;SDS011;22752;51.960;5.886;2022-09-25T07:02:14;4.20;;;2.00;;
36799;SDS011;22752;51.960;5.886;2022-09-25T07:04:58;4.03;;;1.90;;
36799;SDS011;22752;51.960;5.886;2022-09-25T07:07:24;2.25;;;1.42;;
36799;SDS011;22752;51.960;5.886;2022-09-25T07:09:50;4.32;;;1.52;;
36799;SDS011;22752;51.960;5.886;2022-09-25T07:12:15;5.50;;;1.75;;
36799;SDS011;22752;51.960;5.886;2022-09-25T07:14:45;2.50;;;1.23;;
36799;SDS011;22752;51.960;5.886;2022-09-25T07:17:14;2.47;;;1.33;;
36799;SDS011;22752;51.960;5.886;2022-09-25T07:19:40;2.13;;;1.20;;
36799;SDS011;22752;51.960;5.886;2022-09-25T07:22:05;3.90;;;1.20;;
36799;SDS011;22752;51.960;5.886;2022-09-25T07:24:31;3.05;;;1.08;;
36799;SDS011;22752;51.960;5.886;2022-09-25T07:26:57;5.13;;;1.10;;
36799;SDS011;22752;51.960;5.886;2022-09-25T07:29:23;2.22;;;0.90;;
36799;SDS011;22752;51.960;5.886;2022-09-25T07:31:48;3.60;;;1.00;;
36799;SDS011;22752;51.960;5.886;2022-09-25T07:34:14;3.50;;;1.10;;
36799;SDS011;22752;51.960;5.886;2022-09-25T07:36:40;3.92;;;1.23;;
36799;SDS011;22752;51.960;5.886;2022-09-25T07:39:06;1.60;;;0.85;;
36799;SDS011;22752;51.960;5.886;2022-09-25T07:41:32;4.63;;;1.25;;
36799;SDS011;22752;51.960;5.886;2022-09-25T07:43:58;3.17;;;1.15;;
36799;SDS011;22752;51.960;5.886;2022-09-25T07:46:24;3.15;;;0.90;;
36799;SDS011;22752;51.960;5.886;2022-09-25T07:48:51;3.92;;;1.20;;
36799;SDS011;22752;51.960;5.886;2022-09-25T07:51:17;4.05;;;1.10;;
36799;SDS011;22752;51.960;5.886;2022-09-25T07:53:43;4.20;;;1.30;;
36799;SDS011;22752;51.960;5.886;2022-09-25T07:56:12;5.63;;;1.67;;
36799;SDS011;22752;51.960;5.886;2022-09-25T07:58:38;5.93;;;1.85;;
36799;SDS011;22752;51.960;5.886;2022-09-25T08:01:05;3.95;;;1.25;;
36799;SDS011;22752;51.960;5.886;2022-09-25T08:03:33;5.15;;;1.20;;
36799;SDS011;22752;51.960;5.886;2022-09-25T08:06:03;3.08;;;1.35;;
36799;SDS011;22752;51.960;5.886;2022-09-25T08:08:31;5.10;;;1.23;;
36799;SDS011;22752;51.960;5.886;2022-09-25T08:11:02;2.45;;;0.75;;
36799;SDS011;22752;51.960;5.886;2022-09-25T08:13:35;3.35;;;1.08;;
36799;SDS011;22752;51.960;5.886;2022-09-25T08:16:06;1.70;;;0.80;;
36799;SDS011;22752;51.960;5.886;2022-09-25T08:18:37;5.95;;;1.20;;
36799;SDS011;22752;51.960;5.886;2022-09-25T08:21:07;5.30;;;1.10;;
36799;SDS011;22752;51.960;5.886;2022-09-25T08:23:33;4.50;;;1.30;;
36799;SDS011;22752;51.960;5.886;2022-09-25T08:25:59;4.38;;;1.10;;
36799;SDS011;22752;51.960;5.886;2022-09-25T08:28:25;3.45;;;0.93;;
36799;SDS011;22752;51.960;5.886;2022-09-25T08:30:51;2.28;;;0.70;;
36799;SDS011;22752;51.960;5.886;2022-09-25T08:33:18;3.88;;;0.80;;
36799;SDS011;22752;51.960;5.886;2022-09-25T08:35:52;3.65;;;1.00;;
36799;SDS011;22752;51.960;5.886;2022-09-25T08:38:19;6.60;;;1.33;;
36799;SDS011;22752;51.960;5.886;2022-09-25T08:40:50;4.13;;;0.90;;
36799;SDS011;22752;51.960;5.886;2022-09-25T08:43:17;7.03;;;1.45;;
36799;SDS011;22752;51.960;5.886;2022-09-25T08:45:46;5.53;;;1.17;;
36799;SDS011;22752;51.960;5.886;2022-09-25T08:48:33;7.82;;;0.90;;
36799;SDS011;22752;51.960;5.886;2022-09-25T08:51:22;6.88;;;1.63;;
36799;SDS011;22752;51.960;5.886;2022-09-25T08:53:48;4.80;;;1.30;;
36799;SDS011;22752;51.960;5.886;2022-09-25T08:56:14;6.15;;;1.80;;
36799;SDS011;22752;51.960;5.886;2022-09-25T09:01:41;7.32;;;1.42;;
36799;SDS011;22752;51.960;5.886;2022-09-25T09:04:17;6.50;;;1.50;;
36799;SDS011;22752;51.960;5.886;2022-09-25T09:06:48;4.35;;;0.95;;
36799;SDS011;22752;51.960;5.886;2022-09-25T09:09:19;6.00;;;1.17;;
36799;SDS011;22752;51.960;5.886;2022-09-25T09:11:52;6.97;;;1.25;;
36799;SDS011;22752;51.960;5.886;2022-09-25T09:14:31;8.68;;;1.55;;
36799;SDS011;22752;51.960;5.886;2022-09-25T09:17:04;6.07;;;1.17;;
36799;SDS011;22752;51.960;5.886;2022-09-25T09:19:41;4.57;;;1.10;;
36799;SDS011;22752;51.960;5.886;2022-09-25T09:22:11;7.38;;;1.17;;
36799;SDS011;22752;51.960;5.886;2022-09-25T09:41:24;8.40;;;1.30;;
36799;SDS011;22752;51.960;5.886;2022-09-25T09:51:44;2.33;;;0.70;;
36799;SDS011;22752;51.960;5.886;2022-09-25T09:55:01;3.65;;;0.85;;
36799;SDS011;22752;51.960;5.886;2022-09-25T09:57:16;5.78;;;1.52;;
36799;SDS011;22752;51.960;5.886;2022-09-25T09:59:57;5.25;;;1.30;;
36799;SDS011;22752;51.960;5.886;2022-09-25T10:02:41;4.32;;;1.17;;
36799;SDS011;22752;51.960;5.886;2022-09-25T10:05:10;4.45;;;1.00;;
36799;SDS011;22752;51.960;5.886;2022-09-25T10:07:56;3.67;;;0.90;;
36799;SDS011;22752;51.960;5.886;2022-09-25T10:10:23;3.58;;;1.10;;
36799;SDS011;22752;51.960;5.886;2022-09-25T10:13:01;3.65;;;1.00;;
36799;SDS011;22752;51.960;5.886;2022-09-25T10:15:45;3.28;;;1.25;;
36799;SDS011;22752;51.960;5.886;2022-09-25T10:18:15;4.90;;;1.13;;
36799;SDS011;22752;51.960;5.886;2022-09-25T10:20:44;4.43;;;1.15;;
36799;SDS011;22752;51.960;5.886;2022-09-25T10:23:22;6.70;;;1.00;;
36799;SDS011;22752;51.960;5.886;2022-09-25T10:28:58;3.95;;;0.93;;
36799;SDS011;22752;51.960;5.886;2022-09-25T10:31:32;3.35;;;0.98;;
36799;SDS011;22752;51.960;5.886;2022-09-25T10:34:01;6.50;;;1.30;;
36799;SDS011;22752;51.960;5.886;2022-09-25T10:36:37;3.33;;;1.00;;
36799;SDS011;22752;51.960;5.886;2022-09-25T10:39:18;4.13;;;0.80;;
36799;SDS011;22752;51.960;5.886;2022-09-25T10:41:55;2.40;;;0.73;;
36799;SDS011;22752;51.960;5.886;2022-09-25T10:44:32;4.90;;;0.70;;
36799;SDS011;22752;51.960;5.886;2022-09-25T10:52:48;3.65;;;1.00;;
36799;SDS011;22752;51.960;5.886;2022-09-25T11:03:22;2.00;;;0.70;;
36799;SDS011;22752;51.960;5.886;2022-09-25T11:06:00;2.30;;;1.05;;
36799;SDS011;22752;51.960;5.886;2022-09-25T11:08:31;4.18;;;0.98;;
36799;SDS011;22752;51.960;5.886;2022-09-25T11:10:59;2.60;;;0.73;;
36799;SDS011;22752;51.960;5.886;2022-09-25T11:13:46;1.35;;;0.52;;
36799;SDS011;22752;51.960;5.886;2022-09-25T11:16:14;4.78;;;1.05;;
36799;SDS011;22752;51.960;5.886;2022-09-25T11:19:23;3.83;;;0.85;;
36799;SDS011;22752;51.960;5.886;2022-09-25T11:21:32;2.72;;;0.55;;
36799;SDS011;22752;51.960;5.886;2022-09-25T11:26:39;2.67;;;0.80;;
36799;SDS011;22752;51.960;5.886;2022-09-25T11:29:17;3.95;;;0.70;;
36799;SDS011;22752;51.960;5.886;2022-09-25T11:34:45;1.85;;;0.55;;
36799;SDS011;22752;51.960;5.886;2022-09-25T11:37:45;2.80;;;0.60;;
36799;SDS011;22752;51.960;5.886;2022-09-25T11:40:25;1.80;;;0.68;;
36799;SDS011;22752;51.960;5.886;2022-09-25T11:43:16;1.95;;;0.63;;
36799;SDS011;22752;51.960;5.886;2022-09-25T11:45:52;2.58;;;0.65;;
36799;SDS011;22752;51.960;5.886;2022-09-25T11:48:44;2.42;;;0.70;;
36799;SDS011;22752;51.960;5.886;2022-09-25T11:51:37;3.97;;;0.95;;
36799;SDS011;22752;51.960;5.886;2022-09-25T11:54:30;7.57;;;0.88;;
36799;SDS011;22752;51.960;5.886;2022-09-25T11:57:28;4.68;;;0.68;;
36799;SDS011;22752;51.960;5.886;2022-09-25T12:00:21;2.72;;;0.90;;
36799;SDS011;22752;51.960;5.886;2022-09-25T12:05:45;2.38;;;0.60;;
36799;SDS011;22752;51.960;5.886;2022-09-25T12:22:19;2.42;;;0.70;;
36799;SDS011;22752;51.960;5.886;2022-09-25T12:28:13;2.65;;;0.80;;
36799;SDS011;22752;51.960;5.886;2022-09-25T12:33:28;5.55;;;0.70;;
36799;SDS011;22752;51.960;5.886;2022-09-25T12:36:16;4.15;;;0.90;;
36799;SDS011;22752;51.960;5.886;2022-09-25T12:41:26;5.40;;;1.10;;
36799;SDS011;22752;51.960;5.886;2022-09-25T12:44:05;2.65;;;0.43;;
36799;SDS011;22752;51.960;5.886;2022-09-25T12:46:55;3.45;;;0.80;;
36799;SDS011;22752;51.960;5.886;2022-09-25T12:49:26;3.13;;;0.98;;
36799;SDS011;22752;51.960;5.886;2022-09-25T12:52:01;4.00;;;0.90;;
36799;SDS011;22752;51.960;5.886;2022-09-25T12:54:36;2.17;;;0.70;;
36799;SDS011;22752;51.960;5.886;2022-09-25T12:57:35;4.15;;;0.82;;
36799;SDS011;22752;51.960;5.886;2022-09-25T13:00:14;1.63;;;0.50;;
36799;SDS011;22752;51.960;5.886;2022-09-25T13:03:01;2.78;;;0.60;;
36799;SDS011;22752;51.960;5.886;2022-09-25T13:11:07;3.35;;;1.00;;
36799;SDS011;22752;51.960;5.886;2022-09-25T13:14:03;1.23;;;0.50;;
36799;SDS011;22752;51.960;5.886;2022-09-25T13:16:35;2.90;;;0.70;;
36799;SDS011;22752;51.960;5.886;2022-09-25T13:21:56;4.40;;;0.60;;
36799;SDS011;22752;51.960;5.886;2022-09-25T13:24:27;4.63;;;0.82;;
36799;SDS011;22752;51.960;5.886;2022-09-25T13:26:54;2.58;;;0.77;;
36799;SDS011;22752;51.960;5.886;2022-09-25T13:32:29;3.42;;;0.70;;
36799;SDS011;22752;51.960;5.886;2022-09-25T13:37:19;4.50;;;0.85;;
36799;SDS011;22752;51.960;5.886;2022-09-25T13:39:51;1.98;;;0.88;;
36799;SDS011;22752;51.960;5.886;2022-09-25T13:42:37;3.33;;;0.70;;
36799;SDS011;22752;51.960;5.886;2022-09-25T13:50:24;1.92;;;0.50;;
36799;SDS011;22752;51.960;5.886;2022-09-25T13:53:14;4.68;;;0.75;;
36799;SDS011;22752;51.960;5.886;2022-09-25T14:01:45;3.13;;;0.60;;
36799;SDS011;22752;51.960;5.886;2022-09-25T14:07:18;3.35;;;0.65;;
36799;SDS011;22752;51.960;5.886;2022-09-25T14:09:50;3.75;;;0.75;;
36799;SDS011;22752;51.960;5.886;2022-09-25T14:12:30;1.65;;;0.47;;
36799;SDS011;22752;51.960;5.886;2022-09-25T14:15:07;1.15;;;0.40;;
36799;SDS011;22752;51.960;5.886;2022-09-25T14:17:37;1.45;;;0.68;;
36799;SDS011;22752;51.960;5.886;2022-09-25T14:20:17;2.65;;;0.63;;
36799;SDS011;22752;51.960;5.886;2022-09-25T14:22:54;2.53;;;0.60;;
36799;SDS011;22752;51.960;5.886;2022-09-25T14:25:27;2.45;;;0.50;;
36799;SDS011;22752;51.960;5.886;2022-09-25T14:27:56;2.55;;;0.68;;
36799;SDS011;22752;51.960;5.886;2022-09-25T14:30:23;2.72;;;0.60;;
36799;SDS011;22752;51.960;5.886;2022-09-25T14:33:01;2.15;;;0.68;;
36799;SDS011;22752;51.960;5.886;2022-09-25T14:35:31;1.73;;;0.52;;
36799;SDS011;22752;51.960;5.886;2022-09-25T14:46:14;2.63;;;0.60;;
36799;SDS011;22752;51.960;5.886;2022-09-25T14:48:45;2.17;;;0.35;;
36799;SDS011;22752;51.960;5.886;2022-09-25T14:51:37;8.10;;;0.90;;
36799;SDS011;22752;51.960;5.886;2022-09-25T14:54:06;4.38;;;0.68;;
36799;SDS011;22752;51.960;5.886;2022-09-25T14:56:39;0.28;;;0.20;;
36799;SDS011;22752;51.960;5.886;2022-09-25T14:59:10;2.25;;;0.70;;
36799;SDS011;22752;51.960;5.886;2022-09-25T15:01:48;1.27;;;0.60;;
36799;SDS011;22752;51.960;5.886;2022-09-25T15:04:28;1.55;;;0.50;;
36799;SDS011;22752;51.960;5.886;2022-09-25T15:07:07;1.45;;;0.50;;
36799;SDS011;22752;51.960;5.886;2022-09-25T15:09:47;2.53;;;0.40;;
36799;SDS011;22752;51.960;5.886;2022-09-25T15:17:26;3.78;;;0.93;;
36799;SDS011;22752;51.960;5.886;2022-09-25T15:19:55;1.40;;;0.45;;
36799;SDS011;22752;51.960;5.886;2022-09-25T15:22:24;2.00;;;0.50;;
36799;SDS011;22752;51.960;5.886;2022-09-25T15:24:58;1.65;;;0.50;;
36799;SDS011;22752;51.960;5.886;2022-09-25T15:27:27;2.00;;;0.60;;
36799;SDS011;22752;51.960;5.886;2022-09-25T15:29:54;1.20;;;0.35;;
36799;SDS011;22752;51.960;5.886;2022-09-25T15:32:22;1.05;;;0.40;;
36799;SDS011;22752;51.960;5.886;2022-09-25T15:35:03;0.82;;;0.38;;
36799;SDS011;22752;51.960;5.886;2022-09-25T15:37:40;1.65;;;0.40;;
36799;SDS011;22752;51.960;5.886;2022-09-25T15:40:22;0.57;;;0.32;;
36799;SDS011;22752;51.960;5.886;2022-09-25T15:42:51;1.60;;;0.50;;
36799;SDS011;22752;51.960;5.886;2022-09-25T15:45:38;1.05;;;0.50;;
36799;SDS011;22752;51.960;5.886;2022-09-25T15:50:48;2.75;;;0.73;;
36799;SDS011;22752;51.960;5.886;2022-09-25T15:58:49;0.65;;;0.30;;
36799;SDS011;22752;51.960;5.886;2022-09-25T16:01:29;1.13;;;0.45;;
36799;SDS011;22752;51.960;5.886;2022-09-25T16:04:16;0.95;;;0.30;;
36799;SDS011;22752;51.960;5.886;2022-09-25T16:07:22;1.63;;;0.55;;
36799;SDS011;22752;51.960;5.886;2022-09-25T16:09:53;2.22;;;0.55;;
36799;SDS011;22752;51.960;5.886;2022-09-25T16:12:26;2.08;;;0.57;;
36799;SDS011;22752;51.960;5.886;2022-09-25T16:14:54;1.83;;;0.50;;
36799;SDS011;22752;51.960;5.886;2022-09-25T16:17:21;2.03;;;0.73;;
36799;SDS011;22752;51.960;5.886;2022-09-25T16:19:59;1.38;;;0.40;;
36799;SDS011;22752;51.960;5.886;2022-09-25T16:22:56;0.80;;;0.45;;
36799;SDS011;22752;51.960;5.886;2022-09-25T16:28:00;1.77;;;0.52;;
36799;SDS011;22752;51.960;5.886;2022-09-25T16:30:32;1.17;;;0.52;;
36799;SDS011;22752;51.960;5.886;2022-09-25T16:35:44;3.05;;;0.57;;
36799;SDS011;22752;51.960;5.886;2022-09-25T16:38:28;2.63;;;0.90;;
36799;SDS011;22752;51.960;5.886;2022-09-25T16:41:05;2.00;;;0.80;;
36799;SDS011;22752;51.960;5.886;2022-09-25T16:43:43;1.77;;;0.70;;
36799;SDS011;22752;51.960;5.886;2022-09-25T16:46:19;3.47;;;0.60;;
36799;SDS011;22752;51.960;5.886;2022-09-25T16:48:57;3.80;;;1.05;;
36799;SDS011;22752;51.960;5.886;2022-09-25T16:51:24;1.42;;;0.88;;
36799;SDS011;22752;51.960;5.886;2022-09-25T16:53:51;0.70;;;0.70;;
36799;SDS011;22752;51.960;5.886;2022-09-25T16:56:21;2.35;;;0.80;;
36799;SDS011;22752;51.960;5.886;2022-09-25T16:58:48;1.20;;;0.80;;
36799;SDS011;22752;51.960;5.886;2022-09-25T17:01:15;2.10;;;0.90;;
36799;SDS011;22752;51.960;5.886;2022-09-25T17:03:41;1.88;;;1.00;;
36799;SDS011;22752;51.960;5.886;2022-09-25T17:06:16;2.58;;;1.00;;
36799;SDS011;22752;51.960;5.886;2022-09-25T17:08:43;4.20;;;1.45;;
36799;SDS011;22752;51.960;5.886;2022-09-25T17:11:09;1.08;;;0.88;;
36799;SDS011;22752;51.960;5.886;2022-09-25T17:13:36;2.45;;;1.10;;
36799;SDS011;22752;51.960;5.886;2022-09-25T17:16:02;2.67;;;1.30;;
36799;SDS011;22752;51.960;5.886;2022-09-25T17:18:28;2.35;;;1.35;;
36799;SDS011;22752;51.960;5.886;2022-09-25T17:20:54;1.90;;;1.30;;
36799;SDS011;22752;51.960;5.886;2022-09-25T17:23:23;1.30;;;1.13;;
36799;SDS011;22752;51.960;5.886;2022-09-25T17:25:54;2.45;;;1.30;;
36799;SDS011;22752;51.960;5.886;2022-09-25T17:28:39;1.85;;;1.35;;
36799;SDS011;22752;51.960;5.886;2022-09-25T17:31:14;2.65;;;1.20;;
36799;SDS011;22752;51.960;5.886;2022-09-25T17:33:42;4.55;;;1.60;;
36799;SDS011;22752;51.960;5.886;2022-09-25T17:36:09;4.28;;;1.90;;
36799;SDS011;22752;51.960;5.886;2022-09-25T17:38:36;2.05;;;1.27;;
36799;SDS011;22752;51.960;5.886;2022-09-25T17:41:04;3.25;;;1.58;;
36799;SDS011;22752;51.960;5.886;2022-09-25T17:43:31;2.17;;;1.17;;
36799;SDS011;22752;51.960;5.886;2022-09-25T17:45:58;3.28;;;1.30;;
36799;SDS011;22752;51.960;5.886;2022-09-25T17:48:25;2.30;;;1.55;;
36799;SDS011;22752;51.960;5.886;2022-09-25T17:50:54;3.05;;;1.50;;
36799;SDS011;22752;51.960;5.886;2022-09-25T17:53:23;3.33;;;1.10;;
36799;SDS011;22752;51.960;5.886;2022-09-25T17:55:53;3.42;;;1.60;;
36799;SDS011;22752;51.960;5.886;2022-09-25T17:58:20;2.17;;;1.40;;